createdAt,value
2023-05-25T00:00:20.841Z,15.00
2023-05-25T00:03:27.916Z,17.00
2023-05-25T00:06:31.622Z,17.00
2023-05-25T00:09:34.987Z,17.00
2023-05-25T00:12:38.266Z,16.60
2023-05-25T00:15:42.022Z,15.50
2023-05-25T00:18:48.613Z,16.00
2023-05-25T00:21:52.329Z,16.00
2023-05-25T00:24:56.087Z,14.60
2023-05-25T00:27:59.408Z,14.00
2023-05-25T00:31:02.855Z,15.00
2023-05-25T00:34:07.865Z,14.60
2023-05-25T00:37:11.301Z,14.60
2023-05-25T00:40:16.836Z,18.00
2023-05-25T00:43:20.218Z,15.40
2023-05-25T00:46:24.680Z,12.00
2023-05-25T00:49:32.014Z,19.00
2023-05-25T00:52:35.675Z,16.00
2023-05-25T00:55:45.681Z,16.00
2023-05-25T00:58:53.109Z,11.00
2023-05-25T01:01:58.127Z,13.40
2023-05-25T01:05:07.637Z,14.00
2023-05-25T01:08:15.341Z,13.00
2023-05-25T01:11:23.209Z,16.80
2023-05-25T01:14:27.876Z,14.80
2023-05-25T01:17:32.610Z,15.80
2023-05-25T01:20:37.393Z,15.25
2023-05-25T01:23:47.658Z,12.25
2023-05-25T01:26:57.348Z,14.40
2023-05-25T01:30:01.287Z,16.00
2023-05-25T01:33:08.683Z,13.40
2023-05-25T01:36:12.585Z,13.60
2023-05-25T01:39:17.763Z,15.00
2023-05-25T01:42:21.069Z,12.75
2023-05-25T01:45:24.879Z,12.40
2023-05-25T01:48:36.749Z,13.00
2023-05-25T01:51:45.238Z,15.00
2023-05-25T01:54:56.368Z,14.00
2023-05-25T01:58:00.934Z,15.00
2023-05-25T02:01:04.500Z,16.00
2023-05-25T02:04:08.055Z,14.60
2023-05-25T02:07:12.409Z,15.60
2023-05-25T02:10:17.500Z,15.00
2023-05-25T02:13:20.800Z,18.00
2023-05-25T02:16:24.145Z,17.60
2023-05-25T02:19:28.003Z,19.50
2023-05-25T02:22:33.335Z,16.00
2023-05-25T02:25:38.001Z,15.60
2023-05-25T02:28:41.314Z,15.40
2023-05-25T02:31:44.808Z,18.60
2023-05-25T02:34:48.418Z,15.40
2023-05-25T02:37:52.077Z,18.00
2023-05-25T02:40:56.954Z,17.67
2023-05-25T02:44:00.791Z,18.00
2023-05-25T02:47:04.135Z,19.00
2023-05-25T02:50:08.492Z,15.40
2023-05-25T02:53:17.355Z,17.20
2023-05-25T02:56:22.878Z,17.00
2023-05-25T02:59:26.773Z,18.00
2023-05-25T03:02:31.020Z,21.00
2023-05-25T03:05:35.448Z,20.00
2023-05-25T03:08:39.554Z,21.00
2023-05-25T03:11:44.225Z,18.80
2023-05-25T03:14:51.457Z,20.00
2023-05-25T03:18:01.250Z,20.00
2023-05-25T03:21:08.045Z,20.00
2023-05-25T03:24:11.690Z,20.00
2023-05-25T03:27:16.550Z,20.00
2023-05-25T03:30:19.793Z,19.40
2023-05-25T03:33:23.256Z,19.00
2023-05-25T03:36:28.024Z,17.80
2023-05-25T03:39:31.479Z,18.75
2023-05-25T03:42:36.299Z,20.00
2023-05-25T03:45:40.114Z,20.50
2023-05-25T03:48:43.719Z,21.75
2023-05-25T03:51:47.074Z,21.00
2023-05-25T03:54:50.507Z,21.80
2023-05-25T03:57:55.088Z,22.50
2023-05-25T04:00:58.408Z,22.20
2023-05-25T04:04:01.670Z,22.00
2023-05-25T04:07:04.964Z,23.00
2023-05-25T04:10:09.242Z,21.00
2023-05-25T04:13:14.520Z,22.00
2023-05-25T04:16:17.777Z,21.00
2023-05-25T04:19:21.791Z,22.00
2023-05-25T04:22:25.032Z,20.00
2023-05-25T04:25:29.661Z,23.00
2023-05-25T04:28:36.063Z,19.25
2023-05-25T04:32:18.974Z,22.00
2023-05-25T04:35:32.285Z,23.00
2023-05-25T04:38:35.921Z,22.00
2023-05-25T04:41:39.674Z,22.00
2023-05-25T04:44:47.767Z,21.00
2023-05-25T04:47:51.585Z,20.00
2023-05-25T04:50:56.237Z,19.00
2023-05-25T04:54:00.335Z,19.00
2023-05-25T04:57:04.272Z,19.00
2023-05-25T05:00:12.557Z,21.00
2023-05-25T05:03:16.574Z,19.60
2023-05-25T05:06:20.023Z,20.00
2023-05-25T05:09:23.504Z,20.00
2023-05-25T05:12:28.319Z,19.00
2023-05-25T05:15:35.657Z,19.00
2023-05-25T05:18:38.927Z,18.00
2023-05-25T05:21:42.805Z,17.00
2023-05-25T05:24:46.411Z,16.60
2023-05-25T05:27:55.940Z,18.80
2023-05-25T05:31:04.034Z,15.40
2023-05-25T05:34:08.084Z,20.00
2023-05-25T05:37:11.558Z,18.80
2023-05-25T05:40:16.033Z,16.80
2023-05-25T05:43:19.498Z,20.00
2023-05-25T05:46:24.227Z,18.00
2023-05-25T05:49:27.903Z,20.00
2023-05-25T05:52:31.730Z,17.20
2023-05-25T05:55:35.031Z,19.40
2023-05-25T05:58:38.651Z,21.40
2023-05-25T06:01:43.772Z,18.00
2023-05-25T06:04:48.079Z,17.00
2023-05-25T06:07:51.954Z,19.40
2023-05-25T06:10:57.816Z,17.40
2023-05-25T06:14:01.378Z,19.00
2023-05-25T06:17:06.550Z,18.00
2023-05-25T06:20:11.413Z,17.20
2023-05-25T06:23:14.753Z,19.40
2023-05-25T06:26:18.061Z,17.00
2023-05-25T06:29:21.397Z,18.00
2023-05-25T06:32:26.066Z,19.00
2023-05-25T06:35:30.099Z,18.20
2023-05-25T06:38:34.076Z,17.00
2023-05-25T06:41:39.559Z,16.00
2023-05-25T06:44:43.101Z,21.00
2023-05-25T06:47:47.869Z,19.80
2023-05-25T06:50:51.180Z,20.40
2023-05-25T06:53:55.123Z,20.00
2023-05-25T06:56:58.502Z,21.60
2023-05-25T07:00:01.908Z,21.00
2023-05-25T07:03:08.831Z,22.00
2023-05-25T07:06:13.023Z,20.50
2023-05-25T07:09:17.402Z,21.60
2023-05-25T07:12:21.562Z,22.00
2023-05-25T07:15:25.022Z,24.40
2023-05-25T07:18:29.918Z,24.00
2023-05-25T07:21:34.179Z,25.00
2023-05-25T07:24:37.680Z,22.80
2023-05-25T07:27:42.829Z,23.50
2023-05-25T07:30:46.556Z,23.00
2023-05-25T07:33:51.223Z,24.00
2023-05-25T07:36:54.559Z,21.20
2023-05-25T07:39:57.881Z,22.80
2023-05-25T07:43:01.317Z,23.75
2023-05-25T07:46:04.602Z,24.40
2023-05-25T07:49:13.272Z,26.60
2023-05-25T07:52:16.872Z,26.00
2023-05-25T07:55:21.239Z,25.25
2023-05-25T07:58:24.574Z,25.00
2023-05-25T08:01:28.004Z,24.00
2023-05-25T08:04:34.055Z,23.40
2023-05-25T08:07:39.548Z,23.00
2023-05-25T08:10:43.926Z,22.00
2023-05-25T08:13:47.272Z,23.00
2023-05-25T08:16:50.939Z,21.00
2023-05-25T08:19:56.050Z,22.00
2023-05-25T08:22:59.331Z,21.50
2023-05-25T08:26:08.098Z,22.40
2023-05-25T08:29:14.972Z,21.00
2023-05-25T08:32:18.452Z,25.50
2023-05-25T08:35:23.051Z,22.40
2023-05-25T08:38:26.541Z,22.20
2023-05-25T08:41:30.736Z,21.40
2023-05-25T08:44:35.002Z,20.20
2023-05-25T08:47:42.989Z,19.00
2023-05-25T08:50:49.048Z,20.00
2023-05-25T08:53:52.792Z,22.00
2023-05-25T08:57:01.903Z,19.00
2023-05-25T09:00:10.678Z,22.00
2023-05-25T09:03:18.304Z,22.00
2023-05-25T09:06:25.225Z,19.60
2023-05-25T09:09:29.183Z,20.00
2023-05-25T09:12:32.872Z,20.60
2023-05-25T09:15:36.534Z,20.80
2023-05-25T09:18:40.307Z,20.00
2023-05-25T09:21:45.414Z,18.60
2023-05-25T09:24:48.678Z,19.00
2023-05-25T09:27:52.893Z,21.00
2023-05-25T09:30:57.338Z,22.50
2023-05-25T09:34:01.185Z,21.25
2023-05-25T09:37:12.896Z,22.00
2023-05-25T09:40:17.596Z,23.00
2023-05-25T09:43:36.544Z,22.00
2023-05-25T09:46:45.210Z,22.00
2023-05-25T09:49:50.632Z,22.00
2023-05-25T09:52:59.225Z,24.00
2023-05-25T09:56:03.922Z,21.00
2023-05-25T09:59:07.831Z,23.00
2023-05-25T10:02:11.172Z,22.50
2023-05-25T10:05:14.459Z,22.00
2023-05-25T10:08:21.800Z,22.00
2023-05-25T10:11:26.863Z,23.00
2023-05-25T10:14:31.654Z,21.75
2023-05-25T10:17:36.908Z,22.00
2023-05-25T10:20:41.072Z,21.00
2023-05-25T10:23:48.894Z,22.00
2023-05-25T10:26:56.302Z,22.00
2023-05-25T10:30:03.227Z,23.00
2023-05-25T10:33:07.106Z,23.25
2023-05-25T10:36:13.621Z,22.00
2023-05-25T10:39:21.456Z,22.60
2023-05-25T10:42:24.950Z,23.00
2023-05-25T10:45:28.492Z,23.00
2023-05-25T10:48:39.003Z,23.40
2023-05-25T10:51:43.907Z,23.00
2023-05-25T10:54:49.820Z,23.00
2023-05-25T10:58:08.687Z,20.00
2023-05-25T11:01:14.590Z,22.00
2023-05-25T11:04:18.407Z,22.50
2023-05-25T11:07:23.258Z,22.00
2023-05-25T11:10:55.593Z,23.00
2023-05-25T11:14:03.720Z,21.00
2023-05-25T11:17:11.539Z,22.00
2023-05-25T11:20:27.884Z,22.20
2023-05-25T11:23:31.642Z,24.00
2023-05-25T11:26:36.937Z,23.20
2023-05-25T11:29:41.632Z,23.00
2023-05-25T11:32:51.131Z,22.00
2023-05-25T11:35:57.629Z,23.50
2023-05-25T11:39:06.885Z,19.20
2023-05-25T11:42:22.993Z,22.00
2023-05-25T11:45:26.555Z,25.00
2023-05-25T11:48:29.819Z,22.00
2023-05-25T11:51:33.511Z,23.60
2023-05-25T11:54:37.136Z,23.50
2023-05-25T11:57:42.479Z,23.00
2023-05-25T12:00:45.995Z,22.00
2023-05-25T12:03:50.620Z,22.80
2023-05-25T12:06:54.265Z,24.00
2023-05-25T12:10:08.151Z,21.60
2023-05-25T12:13:14.486Z,20.00
2023-05-25T12:16:17.931Z,22.00
2023-05-25T12:19:22.605Z,22.00
2023-05-25T12:22:26.065Z,26.00
2023-05-25T12:25:42.419Z,23.50
2023-05-25T12:29:01.510Z,22.00
2023-05-25T12:32:06.935Z,23.60
2023-05-25T12:35:11.198Z,25.00
2023-05-25T12:38:15.912Z,23.00
2023-05-25T12:41:19.279Z,23.40
2023-05-25T12:44:25.992Z,26.00
2023-05-25T12:47:30.568Z,23.20
2023-05-25T12:50:35.477Z,23.60
2023-05-25T12:53:48.929Z,22.80
2023-05-25T12:56:55.694Z,26.00
2023-05-25T13:00:00.310Z,25.20
2023-05-25T13:03:04.222Z,24.00
2023-05-25T13:06:08.102Z,24.00
2023-05-25T13:09:11.406Z,24.50
2023-05-25T13:12:14.801Z,24.20
2023-05-25T13:15:21.227Z,25.00
2023-05-25T13:18:24.763Z,24.00
2023-05-25T13:21:28.426Z,25.80
2023-05-25T13:24:31.715Z,23.00
2023-05-25T13:27:36.620Z,24.00
2023-05-25T13:30:41.328Z,24.80
2023-05-25T13:33:44.611Z,24.00
2023-05-25T13:36:48.770Z,23.00
2023-05-25T13:39:52.030Z,24.00
2023-05-25T13:42:55.607Z,24.60
2023-05-25T13:46:00.201Z,25.00
2023-05-25T13:49:03.772Z,24.60
2023-05-25T13:52:07.293Z,23.33
2023-05-25T13:55:10.610Z,26.00
2023-05-25T13:58:14.077Z,23.75
2023-05-25T14:01:18.830Z,19.00
2023-05-25T14:04:22.109Z,25.80
2023-05-25T14:07:25.389Z,24.00
2023-05-25T14:10:28.645Z,23.25
2023-05-25T14:13:32.068Z,24.00
2023-05-25T14:16:37.416Z,24.20
2023-05-25T14:19:41.048Z,24.60
2023-05-25T14:22:44.452Z,23.60
2023-05-25T14:25:48.874Z,24.00
2023-05-25T14:28:52.362Z,25.00
2023-05-25T14:31:57.737Z,23.00
2023-05-25T14:35:01.152Z,24.40
2023-05-25T14:38:04.412Z,23.00
2023-05-25T14:41:07.694Z,23.00
2023-05-25T14:44:11.338Z,23.00
2023-05-25T14:47:16.001Z,23.25
2023-05-25T14:50:19.571Z,24.00
2023-05-25T14:53:22.773Z,22.00
2023-05-25T14:56:26.703Z,23.00
2023-05-25T14:59:30.006Z,25.00
2023-05-25T15:02:35.258Z,23.00
2023-05-25T15:05:38.601Z,24.00
2023-05-25T15:08:41.874Z,24.00
2023-05-25T15:11:45.147Z,22.40
2023-05-25T15:14:48.450Z,25.20
2023-05-25T15:17:53.088Z,24.00
2023-05-25T15:20:58.132Z,25.00
2023-05-25T15:24:01.614Z,23.00
2023-05-25T15:27:05.366Z,24.00
2023-05-25T15:30:10.048Z,23.00
2023-05-25T15:33:15.971Z,22.00
2023-05-25T15:36:19.257Z,22.33
2023-05-25T15:39:22.533Z,22.00
2023-05-25T15:42:25.860Z,23.00
2023-05-25T15:45:29.180Z,22.40
2023-05-25T15:48:33.843Z,24.00
2023-05-25T15:51:37.462Z,21.50
2023-05-25T15:54:40.762Z,22.00
2023-05-25T15:57:44.108Z,24.00
2023-05-25T16:00:47.826Z,24.20
2023-05-25T16:03:52.591Z,22.00
2023-05-25T16:06:55.960Z,23.60
2023-05-25T16:09:59.274Z,24.20
2023-05-25T16:13:02.582Z,24.40
2023-05-25T16:16:06.278Z,25.00
2023-05-25T16:19:13.714Z,25.20
2023-05-25T16:22:17.687Z,24.00
2023-05-25T16:25:21.115Z,26.00
2023-05-25T16:28:24.402Z,27.00
2023-05-25T16:31:28.024Z,24.00
2023-05-25T16:34:33.177Z,23.00
2023-05-25T16:37:36.486Z,24.40
2023-05-25T16:40:39.781Z,24.60
2023-05-25T16:43:43.095Z,25.60
2023-05-25T16:46:46.863Z,26.80
2023-05-25T16:49:51.597Z,26.00
2023-05-25T16:52:55.239Z,24.00
2023-05-25T16:55:58.551Z,24.40
2023-05-25T16:59:01.899Z,25.00
2023-05-25T17:02:05.494Z,26.00
2023-05-25T17:05:10.748Z,26.00
2023-05-25T17:08:14.029Z,24.50
2023-05-25T17:11:17.485Z,26.00
2023-05-25T17:14:20.997Z,27.00
2023-05-25T17:17:26.638Z,28.00
2023-05-25T17:20:32.722Z,28.00
2023-05-25T17:23:36.681Z,27.00
2023-05-25T17:26:43.166Z,26.00
2023-05-25T17:29:46.479Z,24.20
2023-05-25T17:32:50.049Z,27.00
2023-05-25T17:35:54.831Z,27.00
2023-05-25T17:38:58.074Z,26.00
2023-05-25T17:42:01.584Z,27.60
2023-05-25T17:45:10.628Z,27.00
2023-05-25T17:48:14.062Z,24.25
2023-05-25T17:51:18.909Z,25.00
2023-05-25T17:54:25.929Z,25.00
2023-05-25T17:57:29.309Z,27.00
2023-05-25T18:00:32.670Z,26.60
2023-05-25T18:03:36.192Z,26.00
2023-05-25T18:06:41.040Z,24.00
2023-05-25T18:09:44.299Z,25.60
2023-05-25T18:12:49.393Z,26.00
2023-05-25T18:15:52.666Z,26.40
2023-05-25T18:18:56.204Z,24.00
2023-05-25T18:22:00.868Z,26.00
2023-05-25T18:25:04.337Z,27.00
2023-05-25T18:28:07.604Z,28.00
2023-05-25T18:31:10.931Z,26.00
2023-05-25T18:34:14.641Z,26.25
2023-05-25T18:37:19.303Z,26.60
2023-05-25T18:40:23.366Z,27.00
2023-05-25T18:43:26.912Z,24.20
2023-05-25T18:46:30.317Z,26.00
2023-05-25T18:49:35.142Z,24.60
2023-05-25T18:52:40.029Z,26.00
2023-05-25T18:55:43.561Z,25.50
2023-05-25T18:58:48.728Z,26.00
2023-05-25T19:01:52.901Z,26.00
2023-05-25T19:04:56.463Z,25.67
2023-05-25T19:08:01.165Z,26.80
2023-05-25T19:11:04.515Z,24.00
2023-05-25T19:14:07.860Z,26.00
2023-05-25T19:17:11.136Z,27.00
2023-05-25T19:20:14.584Z,26.00
2023-05-25T19:23:20.056Z,25.60
2023-05-25T19:26:23.600Z,27.00
2023-05-25T19:29:27.033Z,25.60
2023-05-25T19:32:30.345Z,26.00
2023-05-25T19:35:34.093Z,25.00
2023-05-25T19:38:41.843Z,27.00
2023-05-25T19:41:45.837Z,26.00
2023-05-25T19:44:49.504Z,25.40
2023-05-25T19:47:53.100Z,27.00
2023-05-25T19:50:56.655Z,27.00
2023-05-25T19:54:01.294Z,27.00
2023-05-25T19:57:04.623Z,28.00
2023-05-25T20:00:17.579Z,27.00
2023-05-25T20:03:29.396Z,26.00
2023-05-25T20:06:32.793Z,25.80
2023-05-25T20:09:39.866Z,26.00
2023-05-25T20:12:43.284Z,28.00
2023-05-25T20:15:47.349Z,27.40
2023-05-25T20:18:51.429Z,26.60
2023-05-25T20:21:54.817Z,25.60
2023-05-25T20:25:00.949Z,27.40
2023-05-25T20:28:04.700Z,26.00
2023-05-25T20:31:09.775Z,27.50
2023-05-25T20:34:13.102Z,29.50
2023-05-25T20:37:17.202Z,28.00
2023-05-25T20:40:22.688Z,27.40
2023-05-25T20:43:25.961Z,27.00
2023-05-25T20:46:29.326Z,27.25
2023-05-25T20:49:32.629Z,28.00
2023-05-25T20:52:36.232Z,27.40
2023-05-25T20:55:41.062Z,28.00
2023-05-25T20:58:44.673Z,26.25
2023-05-25T21:01:47.977Z,28.00
2023-05-25T21:04:51.679Z,26.00
2023-05-25T21:07:54.923Z,28.00
2023-05-25T21:10:59.657Z,28.00
2023-05-25T21:14:03.387Z,28.00
2023-05-25T21:17:07.124Z,27.50
2023-05-25T21:20:11.052Z,28.00
2023-05-25T21:23:14.420Z,27.00
2023-05-25T21:26:19.078Z,28.00
2023-05-25T21:29:22.433Z,28.00
2023-05-25T21:32:25.828Z,28.00
2023-05-25T21:35:29.122Z,28.00
2023-05-25T21:38:32.601Z,27.00
2023-05-25T21:41:37.266Z,28.00
2023-05-25T21:44:40.699Z,26.00
2023-05-25T21:47:44.454Z,28.00
2023-05-25T21:50:47.602Z,25.60
2023-05-25T21:53:55.716Z,28.00
2023-05-25T21:57:01.882Z,26.00
2023-05-25T22:00:06.638Z,26.40
2023-05-25T22:03:16.310Z,27.00
2023-05-25T22:06:20.029Z,27.00
2023-05-25T22:09:23.349Z,26.40
2023-05-25T22:12:27.891Z,23.00
2023-05-25T22:15:31.053Z,28.00
2023-05-25T22:18:36.480Z,26.60
2023-05-25T22:21:40.885Z,26.00
2023-05-25T22:24:43.982Z,26.00
2023-05-25T22:27:48.503Z,26.00
2023-05-25T22:30:51.692Z,26.60
2023-05-25T22:33:55.080Z,26.00
2023-05-25T22:36:58.244Z,26.00
2023-05-25T22:40:01.374Z,24.00
2023-05-25T22:43:12.673Z,25.60
2023-05-25T22:46:15.892Z,25.00
2023-05-25T22:49:19.220Z,27.20
2023-05-25T22:52:22.308Z,25.80
2023-05-25T22:55:26.028Z,27.20
2023-05-25T22:58:30.496Z,24.00
2023-05-25T23:01:33.897Z,26.00
2023-05-25T23:04:37.184Z,27.00
2023-05-25T23:07:40.357Z,27.00
2023-05-25T23:10:43.645Z,25.00
2023-05-25T23:13:48.153Z,26.80
2023-05-25T23:16:51.228Z,26.00
2023-05-25T23:19:54.938Z,27.00
2023-05-25T23:22:58.007Z,25.40
2023-05-25T23:26:01.081Z,25.60
2023-05-25T23:29:05.540Z,24.00
2023-05-25T23:32:08.889Z,24.00
2023-05-25T23:35:11.950Z,26.75
2023-05-25T23:38:15.629Z,25.00
2023-05-25T23:41:18.957Z,25.00
2023-05-25T23:44:23.395Z,26.40
2023-05-25T23:47:26.533Z,24.00
2023-05-25T23:50:29.969Z,26.00
2023-05-25T23:53:33.038Z,26.00
2023-05-25T23:56:37.037Z,26.25
2023-05-25T23:59:41.504Z,24.00
